sensor_id;sensor_type;location;lat;lon;timestamp;P1;durP1;ratioP1;P2;durP2;ratioP2
5454;SDS011;2750;49.050;9.250;2022-12-07T00:02:57;15.07;;;10.00;;
5454;SDS011;2750;49.050;9.250;2022-12-07T00:08:00;12.10;;;8.80;;
5454;SDS011;2750;49.050;9.250;2022-12-07T00:13:01;12.93;;;8.87;;
5454;SDS011;2750;49.050;9.250;2022-12-07T00:18:03;11.73;;;9.03;;
5454;SDS011;2750;49.050;9.250;2022-12-07T00:23:06;11.90;;;9.00;;
5454;SDS011;2750;49.050;9.250;2022-12-07T00:28:07;13.27;;;9.80;;
5454;SDS011;2750;49.050;9.250;2022-12-07T00:33:10;14.00;;;9.43;;
5454;SDS011;2750;49.050;9.250;2022-12-07T00:38:13;12.83;;;9.10;;
5454;SDS011;2750;49.050;9.250;2022-12-07T00:43:15;14.47;;;9.77;;
5454;SDS011;2750;49.050;9.250;2022-12-07T00:48:16;16.37;;;10.13;;
5454;SDS011;2750;49.050;9.250;2022-12-07T00:53:19;14.70;;;10.00;;
5454;SDS011;2750;49.050;9.250;2022-12-07T00:58:21;14.10;;;9.80;;
5454;SDS011;2750;49.050;9.250;2022-12-07T01:03:23;18.80;;;10.30;;
5454;SDS011;2750;49.050;9.250;2022-12-07T01:08:26;16.20;;;10.50;;
5454;SDS011;2750;49.050;9.250;2022-12-07T01:13:28;16.03;;;10.33;;
5454;SDS011;2750;49.050;9.250;2022-12-07T01:18:31;17.07;;;11.13;;
5454;SDS011;2750;49.050;9.250;2022-12-07T01:23:35;16.27;;;10.80;;
5454;SDS011;2750;49.050;9.250;2022-12-07T01:28:37;15.03;;;10.17;;
5454;SDS011;2750;49.050;9.250;2022-12-07T01:33:39;16.60;;;10.33;;
5454;SDS011;2750;49.050;9.250;2022-12-07T01:38:42;17.60;;;11.30;;
5454;SDS011;2750;49.050;9.250;2022-12-07T01:49:21;17.50;;;10.80;;
5454;SDS011;2750;49.050;9.250;2022-12-07T01:54:28;13.57;;;9.70;;
5454;SDS011;2750;49.050;9.250;2022-12-07T01:59:30;15.90;;;10.00;;
5454;SDS011;2750;49.050;9.250;2022-12-07T02:04:32;18.33;;;10.70;;
5454;SDS011;2750;49.050;9.250;2022-12-07T02:09:35;13.90;;;10.03;;
5454;SDS011;2750;49.050;9.250;2022-12-07T02:14:36;19.60;;;10.80;;
5454;SDS011;2750;49.050;9.250;2022-12-07T02:25:07;17.93;;;11.17;;
5454;SDS011;2750;49.050;9.250;2022-12-07T02:30:22;17.30;;;10.97;;
5454;SDS011;2750;49.050;9.250;2022-12-07T02:35:28;17.73;;;11.67;;
5454;SDS011;2750;49.050;9.250;2022-12-07T02:40:35;17.23;;;10.93;;
5454;SDS011;2750;49.050;9.250;2022-12-07T02:45:41;20.90;;;11.53;;
5454;SDS011;2750;49.050;9.250;2022-12-07T02:50:47;14.93;;;10.00;;
5454;SDS011;2750;49.050;9.250;2022-12-07T02:55:50;17.67;;;11.00;;
5454;SDS011;2750;49.050;9.250;2022-12-07T03:00:54;16.23;;;10.50;;
5454;SDS011;2750;49.050;9.250;2022-12-07T03:06:06;16.80;;;10.47;;
5454;SDS011;2750;49.050;9.250;2022-12-07T03:11:16;20.60;;;13.13;;
5454;SDS011;2750;49.050;9.250;2022-12-07T03:16:27;23.17;;;13.87;;
5454;SDS011;2750;49.050;9.250;2022-12-07T03:21:35;21.87;;;14.17;;
5454;SDS011;2750;49.050;9.250;2022-12-07T03:26:41;19.47;;;13.07;;
5454;SDS011;2750;49.050;9.250;2022-12-07T03:31:48;20.07;;;13.00;;
5454;SDS011;2750;49.050;9.250;2022-12-07T03:36:57;18.60;;;12.60;;
5454;SDS011;2750;49.050;9.250;2022-12-07T03:42:03;21.23;;;14.43;;
5454;SDS011;2750;49.050;9.250;2022-12-07T03:47:10;20.67;;;13.43;;
5454;SDS011;2750;49.050;9.250;2022-12-07T03:52:18;21.90;;;13.80;;
5454;SDS011;2750;49.050;9.250;2022-12-07T03:57:25;21.80;;;14.07;;
5454;SDS011;2750;49.050;9.250;2022-12-07T04:02:30;22.27;;;14.53;;
5454;SDS011;2750;49.050;9.250;2022-12-07T04:07:33;24.03;;;14.80;;
5454;SDS011;2750;49.050;9.250;2022-12-07T04:12:34;22.27;;;14.17;;
5454;SDS011;2750;49.050;9.250;2022-12-07T04:17:37;24.33;;;14.20;;
5454;SDS011;2750;49.050;9.250;2022-12-07T04:22:39;20.47;;;13.37;;
5454;SDS011;2750;49.050;9.250;2022-12-07T04:27:40;19.17;;;13.97;;
5454;SDS011;2750;49.050;9.250;2022-12-07T04:32:43;20.07;;;14.60;;
5454;SDS011;2750;49.050;9.250;2022-12-07T04:37:45;22.20;;;14.80;;
5454;SDS011;2750;49.050;9.250;2022-12-07T04:42:46;20.23;;;14.17;;
5454;SDS011;2750;49.050;9.250;2022-12-07T04:47:49;19.57;;;13.53;;
5454;SDS011;2750;49.050;9.250;2022-12-07T04:52:51;18.97;;;13.20;;
5454;SDS011;2750;49.050;9.250;2022-12-07T04:57:52;22.53;;;14.37;;
5454;SDS011;2750;49.050;9.250;2022-12-07T05:02:55;20.67;;;12.97;;
5454;SDS011;2750;49.050;9.250;2022-12-07T05:07:56;23.00;;;13.27;;
5454;SDS011;2750;49.050;9.250;2022-12-07T05:12:58;20.60;;;13.00;;
5454;SDS011;2750;49.050;9.250;2022-12-07T05:18:01;17.80;;;12.53;;
5454;SDS011;2750;49.050;9.250;2022-12-07T05:23:03;21.73;;;12.90;;
5454;SDS011;2750;49.050;9.250;2022-12-07T05:28:04;20.47;;;12.67;;
5454;SDS011;2750;49.050;9.250;2022-12-07T05:33:08;20.03;;;13.37;;
5454;SDS011;2750;49.050;9.250;2022-12-07T05:38:09;19.13;;;11.93;;
5454;SDS011;2750;49.050;9.250;2022-12-07T05:43:11;22.43;;;14.33;;
5454;SDS011;2750;49.050;9.250;2022-12-07T05:48:14;21.03;;;13.83;;
5454;SDS011;2750;49.050;9.250;2022-12-07T05:53:15;22.27;;;13.43;;
5454;SDS011;2750;49.050;9.250;2022-12-07T05:58:17;17.93;;;12.50;;
5454;SDS011;2750;49.050;9.250;2022-12-07T06:03:38;18.77;;;11.80;;
5454;SDS011;2750;49.050;9.250;2022-12-07T06:08:39;17.37;;;12.33;;
5454;SDS011;2750;49.050;9.250;2022-12-07T06:13:41;16.60;;;11.27;;
5454;SDS011;2750;49.050;9.250;2022-12-07T06:18:44;19.77;;;12.73;;
5454;SDS011;2750;49.050;9.250;2022-12-07T06:23:45;16.20;;;10.57;;
5454;SDS011;2750;49.050;9.250;2022-12-07T06:28:48;18.60;;;12.43;;
5454;SDS011;2750;49.050;9.250;2022-12-07T06:33:51;16.23;;;11.37;;
5454;SDS011;2750;49.050;9.250;2022-12-07T06:38:52;14.50;;;10.40;;
5454;SDS011;2750;49.050;9.250;2022-12-07T06:43:54;15.43;;;11.37;;
5454;SDS011;2750;49.050;9.250;2022-12-07T06:48:57;17.43;;;12.27;;
5454;SDS011;2750;49.050;9.250;2022-12-07T06:53:59;20.97;;;14.33;;
5454;SDS011;2750;49.050;9.250;2022-12-07T06:59:00;16.77;;;11.73;;
5454;SDS011;2750;49.050;9.250;2022-12-07T07:04:03;16.33;;;9.97;;
5454;SDS011;2750;49.050;9.250;2022-12-07T07:09:05;15.47;;;11.23;;
5454;SDS011;2750;49.050;9.250;2022-12-07T07:14:07;14.70;;;10.93;;
5454;SDS011;2750;49.050;9.250;2022-12-07T07:19:09;20.80;;;13.70;;
5454;SDS011;2750;49.050;9.250;2022-12-07T07:24:11;16.37;;;11.93;;
5454;SDS011;2750;49.050;9.250;2022-12-07T07:29:13;24.87;;;13.40;;
5454;SDS011;2750;49.050;9.250;2022-12-07T07:34:16;18.20;;;12.47;;
5454;SDS011;2750;49.050;9.250;2022-12-07T07:39:17;17.83;;;11.43;;
5454;SDS011;2750;49.050;9.250;2022-12-07T07:44:19;16.90;;;11.83;;
5454;SDS011;2750;49.050;9.250;2022-12-07T07:49:23;20.17;;;13.03;;
5454;SDS011;2750;49.050;9.250;2022-12-07T07:54:25;15.80;;;12.23;;
5454;SDS011;2750;49.050;9.250;2022-12-07T07:59:27;16.13;;;10.90;;
5454;SDS011;2750;49.050;9.250;2022-12-07T08:04:30;15.77;;;10.57;;
5454;SDS011;2750;49.050;9.250;2022-12-07T08:09:32;12.53;;;9.13;;
5454;SDS011;2750;49.050;9.250;2022-12-07T08:14:34;11.37;;;7.90;;
5454;SDS011;2750;49.050;9.250;2022-12-07T08:19:37;12.40;;;8.20;;
5454;SDS011;2750;49.050;9.250;2022-12-07T08:24:38;11.80;;;8.47;;
5454;SDS011;2750;49.050;9.250;2022-12-07T08:29:40;10.73;;;9.13;;
5454;SDS011;2750;49.050;9.250;2022-12-07T08:34:43;9.60;;;7.50;;
5454;SDS011;2750;49.050;9.250;2022-12-07T08:39:44;10.67;;;8.00;;
5454;SDS011;2750;49.050;9.250;2022-12-07T08:44:46;10.33;;;7.40;;
5454;SDS011;2750;49.050;9.250;2022-12-07T08:49:49;10.93;;;7.87;;
5454;SDS011;2750;49.050;9.250;2022-12-07T08:54:53;8.60;;;6.80;;
5454;SDS011;2750;49.050;9.250;2022-12-07T08:59:54;29.27;;;20.77;;
5454;SDS011;2750;49.050;9.250;2022-12-07T09:04:58;11.27;;;7.90;;
5454;SDS011;2750;49.050;9.250;2022-12-07T09:09:59;10.63;;;8.10;;
5454;SDS011;2750;49.050;9.250;2022-12-07T09:15:01;10.30;;;7.47;;
5454;SDS011;2750;49.050;9.250;2022-12-07T09:20:04;10.37;;;6.93;;
5454;SDS011;2750;49.050;9.250;2022-12-07T09:25:07;8.87;;;7.07;;
5454;SDS011;2750;49.050;9.250;2022-12-07T09:30:09;9.83;;;7.03;;
5454;SDS011;2750;49.050;9.250;2022-12-07T09:35:12;8.30;;;6.73;;
5454;SDS011;2750;49.050;9.250;2022-12-07T09:40:14;6.47;;;5.87;;
5454;SDS011;2750;49.050;9.250;2022-12-07T09:45:19;8.63;;;6.13;;
5454;SDS011;2750;49.050;9.250;2022-12-07T09:50:26;12.47;;;6.07;;
5454;SDS011;2750;49.050;9.250;2022-12-07T09:55:29;8.87;;;6.07;;
5454;SDS011;2750;49.050;9.250;2022-12-07T10:00:32;9.17;;;6.17;;
5454;SDS011;2750;49.050;9.250;2022-12-07T10:05:35;8.27;;;5.73;;
5454;SDS011;2750;49.050;9.250;2022-12-07T10:10:39;8.20;;;6.50;;
5454;SDS011;2750;49.050;9.250;2022-12-07T10:15:45;8.83;;;6.40;;
5454;SDS011;2750;49.050;9.250;2022-12-07T10:20:59;8.67;;;5.77;;
5454;SDS011;2750;49.050;9.250;2022-12-07T10:26:20;8.90;;;5.60;;
5454;SDS011;2750;49.050;9.250;2022-12-07T10:31:28;8.00;;;5.13;;
5454;SDS011;2750;49.050;9.250;2022-12-07T10:36:35;6.50;;;5.47;;
5454;SDS011;2750;49.050;9.250;2022-12-07T10:41:49;6.10;;;4.90;;
5454;SDS011;2750;49.050;9.250;2022-12-07T10:47:07;13.03;;;7.20;;
5454;SDS011;2750;49.050;9.250;2022-12-07T10:52:41;7.53;;;5.90;;
5454;SDS011;2750;49.050;9.250;2022-12-07T10:58:04;12.47;;;7.00;;
5454;SDS011;2750;49.050;9.250;2022-12-07T11:03:23;13.37;;;6.20;;
5454;SDS011;2750;49.050;9.250;2022-12-07T11:08:39;9.97;;;6.57;;
5454;SDS011;2750;49.050;9.250;2022-12-07T11:13:52;11.73;;;6.33;;
5454;SDS011;2750;49.050;9.250;2022-12-07T11:19:00;10.93;;;7.23;;
5454;SDS011;2750;49.050;9.250;2022-12-07T11:24:17;13.70;;;7.83;;
5454;SDS011;2750;49.050;9.250;2022-12-07T11:29:34;12.63;;;7.93;;
5454;SDS011;2750;49.050;9.250;2022-12-07T11:34:50;11.43;;;8.10;;
5454;SDS011;2750;49.050;9.250;2022-12-07T11:40:05;12.87;;;8.40;;
5454;SDS011;2750;49.050;9.250;2022-12-07T11:45:19;15.43;;;8.10;;
5454;SDS011;2750;49.050;9.250;2022-12-07T11:50:25;11.40;;;7.77;;
5454;SDS011;2750;49.050;9.250;2022-12-07T11:55:38;13.17;;;8.30;;
5454;SDS011;2750;49.050;9.250;2022-12-07T12:00:43;15.17;;;9.33;;
5454;SDS011;2750;49.050;9.250;2022-12-07T12:05:45;13.83;;;8.93;;
5454;SDS011;2750;49.050;9.250;2022-12-07T12:10:51;15.87;;;9.63;;
5454;SDS011;2750;49.050;9.250;2022-12-07T12:16:01;14.43;;;9.83;;
5454;SDS011;2750;49.050;9.250;2022-12-07T12:21:17;13.03;;;9.07;;
5454;SDS011;2750;49.050;9.250;2022-12-07T12:26:22;14.87;;;9.40;;
5454;SDS011;2750;49.050;9.250;2022-12-07T12:31:34;10.77;;;9.13;;
5454;SDS011;2750;49.050;9.250;2022-12-07T12:36:45;17.40;;;9.73;;
5454;SDS011;2750;49.050;9.250;2022-12-07T12:41:53;17.23;;;9.27;;
5454;SDS011;2750;49.050;9.250;2022-12-07T12:52:53;23.93;;;10.53;;
5454;SDS011;2750;49.050;9.250;2022-12-07T13:03:38;15.93;;;9.97;;
5454;SDS011;2750;49.050;9.250;2022-12-07T13:08:54;13.13;;;9.57;;
5454;SDS011;2750;49.050;9.250;2022-12-07T13:25:03;16.73;;;10.03;;
5454;SDS011;2750;49.050;9.250;2022-12-07T13:30:12;22.03;;;9.60;;
5454;SDS011;2750;49.050;9.250;2022-12-07T13:35:34;15.03;;;9.23;;
5454;SDS011;2750;49.050;9.250;2022-12-07T13:40:37;13.83;;;8.80;;
5454;SDS011;2750;49.050;9.250;2022-12-07T13:45:41;14.47;;;9.27;;
5454;SDS011;2750;49.050;9.250;2022-12-07T13:50:56;11.53;;;8.20;;
5454;SDS011;2750;49.050;9.250;2022-12-07T13:55:59;13.03;;;9.30;;
5454;SDS011;2750;49.050;9.250;2022-12-07T14:01:01;15.27;;;8.83;;
5454;SDS011;2750;49.050;9.250;2022-12-07T14:06:12;13.63;;;10.30;;
5454;SDS011;2750;49.050;9.250;2022-12-07T14:11:17;12.03;;;8.87;;
5454;SDS011;2750;49.050;9.250;2022-12-07T14:16:23;13.70;;;9.43;;
5454;SDS011;2750;49.050;9.250;2022-12-07T14:21:29;13.67;;;10.20;;
5454;SDS011;2750;49.050;9.250;2022-12-07T14:26:32;14.10;;;10.40;;
5454;SDS011;2750;49.050;9.250;2022-12-07T14:31:33;16.70;;;10.30;;
5454;SDS011;2750;49.050;9.250;2022-12-07T14:36:36;18.20;;;11.13;;
5454;SDS011;2750;49.050;9.250;2022-12-07T14:41:37;14.77;;;10.73;;
5454;SDS011;2750;49.050;9.250;2022-12-07T14:46:51;18.30;;;11.43;;
5454;SDS011;2750;49.050;9.250;2022-12-07T14:51:54;16.30;;;11.23;;
5454;SDS011;2750;49.050;9.250;2022-12-07T14:56:56;20.30;;;12.17;;
5454;SDS011;2750;49.050;9.250;2022-12-07T15:01:58;22.70;;;12.50;;
5454;SDS011;2750;49.050;9.250;2022-12-07T15:07:01;20.90;;;11.90;;
5454;SDS011;2750;49.050;9.250;2022-12-07T15:12:05;19.87;;;12.23;;
5454;SDS011;2750;49.050;9.250;2022-12-07T15:17:07;15.50;;;11.07;;
5454;SDS011;2750;49.050;9.250;2022-12-07T15:22:13;16.93;;;12.13;;
5454;SDS011;2750;49.050;9.250;2022-12-07T15:27:14;19.33;;;11.83;;
5454;SDS011;2750;49.050;9.250;2022-12-07T15:32:16;19.33;;;12.57;;
5454;SDS011;2750;49.050;9.250;2022-12-07T15:37:18;24.33;;;12.57;;
5454;SDS011;2750;49.050;9.250;2022-12-07T15:42:20;21.07;;;13.30;;
5454;SDS011;2750;49.050;9.250;2022-12-07T15:47:21;22.63;;;12.83;;
5454;SDS011;2750;49.050;9.250;2022-12-07T15:52:24;22.17;;;14.23;;
5454;SDS011;2750;49.050;9.250;2022-12-07T15:57:26;21.60;;;13.80;;
5454;SDS011;2750;49.050;9.250;2022-12-07T16:02:28;25.03;;;16.20;;
5454;SDS011;2750;49.050;9.250;2022-12-07T16:07:30;18.93;;;13.43;;
5454;SDS011;2750;49.050;9.250;2022-12-07T16:12:32;21.67;;;15.87;;
5454;SDS011;2750;49.050;9.250;2022-12-07T16:17:33;24.00;;;16.50;;
5454;SDS011;2750;49.050;9.250;2022-12-07T16:22:36;25.80;;;16.70;;
5454;SDS011;2750;49.050;9.250;2022-12-07T16:27:38;24.63;;;16.30;;
5454;SDS011;2750;49.050;9.250;2022-12-07T16:32:39;24.87;;;17.20;;
5454;SDS011;2750;49.050;9.250;2022-12-07T16:37:42;34.17;;;24.57;;
5454;SDS011;2750;49.050;9.250;2022-12-07T16:42:44;22.30;;;15.10;;
5454;SDS011;2750;49.050;9.250;2022-12-07T16:47:45;24.23;;;15.10;;
5454;SDS011;2750;49.050;9.250;2022-12-07T16:52:48;26.00;;;16.57;;
5454;SDS011;2750;49.050;9.250;2022-12-07T16:57:50;23.23;;;14.57;;
5454;SDS011;2750;49.050;9.250;2022-12-07T17:02:51;19.00;;;14.43;;
5454;SDS011;2750;49.050;9.250;2022-12-07T17:07:56;23.93;;;15.47;;
5454;SDS011;2750;49.050;9.250;2022-12-07T17:12:58;26.10;;;17.00;;
5454;SDS011;2750;49.050;9.250;2022-12-07T17:18:00;25.23;;;16.77;;
5454;SDS011;2750;49.050;9.250;2022-12-07T17:23:03;26.43;;;18.67;;
5454;SDS011;2750;49.050;9.250;2022-12-07T17:28:04;23.43;;;16.03;;
5454;SDS011;2750;49.050;9.250;2022-12-07T17:33:06;22.13;;;15.40;;
5454;SDS011;2750;49.050;9.250;2022-12-07T17:38:09;27.13;;;16.90;;
5454;SDS011;2750;49.050;9.250;2022-12-07T17:43:10;25.60;;;17.17;;
5454;SDS011;2750;49.050;9.250;2022-12-07T17:48:12;26.80;;;17.17;;
5454;SDS011;2750;49.050;9.250;2022-12-07T17:53:15;24.47;;;16.90;;
5454;SDS011;2750;49.050;9.250;2022-12-07T17:58:16;22.43;;;15.03;;
5454;SDS011;2750;49.050;9.250;2022-12-07T18:03:18;22.93;;;16.40;;
5454;SDS011;2750;49.050;9.250;2022-12-07T18:08:21;23.87;;;16.03;;
5454;SDS011;2750;49.050;9.250;2022-12-07T18:13:22;25.10;;;17.03;;
5454;SDS011;2750;49.050;9.250;2022-12-07T18:18:37;22.97;;;15.83;;
5454;SDS011;2750;49.050;9.250;2022-12-07T18:23:41;25.40;;;15.80;;
5454;SDS011;2750;49.050;9.250;2022-12-07T18:28:43;25.20;;;15.37;;
5454;SDS011;2750;49.050;9.250;2022-12-07T18:33:46;22.63;;;14.77;;
5454;SDS011;2750;49.050;9.250;2022-12-07T18:38:49;20.80;;;15.00;;
5454;SDS011;2750;49.050;9.250;2022-12-07T18:43:51;23.30;;;15.27;;
5454;SDS011;2750;49.050;9.250;2022-12-07T18:48:53;23.63;;;15.27;;
5454;SDS011;2750;49.050;9.250;2022-12-07T18:53:57;24.17;;;15.97;;
5454;SDS011;2750;49.050;9.250;2022-12-07T18:59:00;19.63;;;13.53;;
5454;SDS011;2750;49.050;9.250;2022-12-07T19:04:20;20.53;;;15.07;;
5454;SDS011;2750;49.050;9.250;2022-12-07T19:09:23;16.57;;;12.33;;
5454;SDS011;2750;49.050;9.250;2022-12-07T19:14:25;19.50;;;12.83;;
5454;SDS011;2750;49.050;9.250;2022-12-07T19:19:29;20.77;;;13.20;;
5454;SDS011;2750;49.050;9.250;2022-12-07T19:24:34;21.93;;;14.73;;
5454;SDS011;2750;49.050;9.250;2022-12-07T19:29:36;19.67;;;13.83;;
5454;SDS011;2750;49.050;9.250;2022-12-07T19:34:38;25.70;;;14.70;;
5454;SDS011;2750;49.050;9.250;2022-12-07T19:39:42;21.83;;;14.27;;
5454;SDS011;2750;49.050;9.250;2022-12-07T19:44:45;26.70;;;17.97;;
5454;SDS011;2750;49.050;9.250;2022-12-07T19:49:47;23.40;;;16.27;;
5454;SDS011;2750;49.050;9.250;2022-12-07T19:54:50;22.40;;;15.00;;
5454;SDS011;2750;49.050;9.250;2022-12-07T19:59:51;20.00;;;15.80;;
5454;SDS011;2750;49.050;9.250;2022-12-07T20:04:53;21.77;;;14.00;;
5454;SDS011;2750;49.050;9.250;2022-12-07T20:09:56;23.27;;;15.20;;
5454;SDS011;2750;49.050;9.250;2022-12-07T20:14:57;21.63;;;15.57;;
5454;SDS011;2750;49.050;9.250;2022-12-07T20:19:59;21.60;;;13.50;;
5454;SDS011;2750;49.050;9.250;2022-12-07T20:25:02;18.40;;;12.23;;
5454;SDS011;2750;49.050;9.250;2022-12-07T20:30:04;17.83;;;12.07;;
5454;SDS011;2750;49.050;9.250;2022-12-07T20:35:07;22.30;;;13.33;;
5454;SDS011;2750;49.050;9.250;2022-12-07T20:40:11;18.40;;;13.73;;
5454;SDS011;2750;49.050;9.250;2022-12-07T20:45:12;20.33;;;13.93;;
5454;SDS011;2750;49.050;9.250;2022-12-07T20:50:14;19.23;;;12.47;;
5454;SDS011;2750;49.050;9.250;2022-12-07T20:55:17;20.10;;;13.23;;
5454;SDS011;2750;49.050;9.250;2022-12-07T21:00:19;21.23;;;12.60;;
5454;SDS011;2750;49.050;9.250;2022-12-07T21:05:20;20.73;;;13.67;;
5454;SDS011;2750;49.050;9.250;2022-12-07T21:10:23;22.60;;;14.13;;
5454;SDS011;2750;49.050;9.250;2022-12-07T21:15:25;26.13;;;16.27;;
5454;SDS011;2750;49.050;9.250;2022-12-07T21:20:26;27.33;;;17.77;;
5454;SDS011;2750;49.050;9.250;2022-12-07T21:25:29;22.30;;;14.50;;
5454;SDS011;2750;49.050;9.250;2022-12-07T21:30:31;20.53;;;14.20;;
5454;SDS011;2750;49.050;9.250;2022-12-07T21:35:32;33.50;;;21.13;;
5454;SDS011;2750;49.050;9.250;2022-12-07T21:40:35;31.20;;;19.20;;
5454;SDS011;2750;49.050;9.250;2022-12-07T21:45:37;22.83;;;15.30;;
5454;SDS011;2750;49.050;9.250;2022-12-07T21:50:38;28.93;;;18.53;;
5454;SDS011;2750;49.050;9.250;2022-12-07T21:55:41;33.97;;;20.50;;
5454;SDS011;2750;49.050;9.250;2022-12-07T22:00:43;22.17;;;13.53;;
5454;SDS011;2750;49.050;9.250;2022-12-07T22:05:45;21.33;;;14.27;;
5454;SDS011;2750;49.050;9.250;2022-12-07T22:10:48;23.87;;;13.83;;
5454;SDS011;2750;49.050;9.250;2022-12-07T22:15:49;23.07;;;14.83;;
5454;SDS011;2750;49.050;9.250;2022-12-07T22:20:51;25.90;;;15.13;;
5454;SDS011;2750;49.050;9.250;2022-12-07T22:25:54;26.00;;;15.70;;
5454;SDS011;2750;49.050;9.250;2022-12-07T22:31:00;24.80;;;14.87;;
5454;SDS011;2750;49.050;9.250;2022-12-07T22:36:03;23.90;;;13.87;;
5454;SDS011;2750;49.050;9.250;2022-12-07T22:41:10;25.97;;;15.90;;
5454;SDS011;2750;49.050;9.250;2022-12-07T22:46:12;26.20;;;15.73;;
5454;SDS011;2750;49.050;9.250;2022-12-07T22:51:18;25.00;;;15.50;;
5454;SDS011;2750;49.050;9.250;2022-12-07T22:56:22;30.20;;;16.40;;
5454;SDS011;2750;49.050;9.250;2022-12-07T23:01:23;26.90;;;15.50;;
5454;SDS011;2750;49.050;9.250;2022-12-07T23:06:26;24.37;;;14.33;;
5454;SDS011;2750;49.050;9.250;2022-12-07T23:11:30;32.10;;;16.20;;
5454;SDS011;2750;49.050;9.250;2022-12-07T23:16:50;26.60;;;14.67;;
5454;SDS011;2750;49.050;9.250;2022-12-07T23:21:52;24.37;;;14.00;;
5454;SDS011;2750;49.050;9.250;2022-12-07T23:26:55;33.63;;;17.53;;
5454;SDS011;2750;49.050;9.250;2022-12-07T23:31:56;28.27;;;16.23;;
5454;SDS011;2750;49.050;9.250;2022-12-07T23:36:58;28.13;;;16.50;;
5454;SDS011;2750;49.050;9.250;2022-12-07T23:42:01;30.60;;;16.17;;
5454;SDS011;2750;49.050;9.250;2022-12-07T23:47:02;30.60;;;17.20;;
5454;SDS011;2750;49.050;9.250;2022-12-07T23:52:04;35.23;;;17.57;;
5454;SDS011;2750;49.050;9.250;2022-12-07T23:57:07;30.90;;;17.50;;
